EA1IMW-1
43.14.36N 005.46.93W
IN73CF aprs.fi
zuletzt gehoert:
2022-10-04T06:31:49Z
zuerst gehoert:
2022-06-05T12:27:23Z

APRS IN73CF, 2 Stunde(n), EA1IMW-1 [08:42:59, 0s].
EA1IMW 43.14.36N 005.46.93WIN73CF 0.569km 298°WNW06:31:49ZGRUPO RADIO GALENA (GRG) 430.4500/430.4500 CC1(3EA1IMW-1)
EB1DGC 43.12.60N 005.45.59WIN73CF 3.262km 157°SSE06:30:58ZMMDVM MMDVM HS Hat 433.4500/433.4500 CC1
EA1JBL 43.12.28N 005.47.42WIN73CE 3.758km 198°SSW06:31:25ZMMDVM DVMega 435.3000/435.3000 CC1
EA1HWA 43.12.00N 005.47.40WIN73CE 4.261km 195°SSW06:30:38ZMMDVM MMDVM HS Hat 433.4500/433.4500 CC1
EA1RCG 43.09.45N 005.49.78WIN73CD 9.835km 206°SSW06:30:30ZGRUPO RADIO GALENA (GRG) 430.4500/430.4500 CC1(3EA1RCG-3)
EA1HWX 43.19.29N 005.50.96WIN73BH 11.127km 328°NNW06:30:48ZMMDVM DMO 222.3400/222.3400 CC1(3EA1HWX-10)
DMO - UHF 439.7250/431.0000 CC11(2EA1HWX-2)
EA1L 43.20.38N 005.51.13WIN73BI 13.003km 332°NNW06:32:27ZWind 182°/000kn, Böen bis 002kn, Temp 14.44c, Regen 0.0mm, letzte 24h 0.0mm, seit 0h 0.0mm, Baro 1019.3h, Hum: 0%(3EA1L-13)
ea1l@ure.es V=13.0V(2EA1L)
33D00 43.21.63N 005.51.13WIN73BI 15.058km 336°NNW06:01:42Z33-D-00 Protección Civil REMER / Delegación del Gobierno en Asturias
EA1JBU 43.21.85N 005.51.13WIN73BI 15.436km 336°NNW06:32:05ZEA1JBU(3EA1JBU-1)
EA1GCM 43.21.96N 005.51.43WIN73BI 15.804km 335°NNW06:42:34Z>=
ED1ZAD 43.07.90N 005.38.52WIN73ED 15.943km 137°SE06:28:07ZED1ZAD-3 APRS Digi/Igate(3ED1ZAD-3)
LEHU 43.22.63N 005.49.57WIN73CJ 16.114km 345°NNW06:30:03ZHelipuerto del HUCA: LEAS 040530Z 23001KT CAVOK 15/14 Q1020 NOSIG=
ED1ZAU 43.23.04N 005.52.75WIN73BJ 18.365km 333°NNW06:30:08ZRD625 438.5000/430.9000 CC1
EA1ABW 43.24.77N 005.47.77WIN73CJ 19.644km 355°N06:30:41ZMMDVM MMDVM HS Hat 439.8250/439.8250 CC1(3EA1ABW-1)
MMDVM MMDVM HS Hat 439.8250/439.8250 CC1(2EA1ABW-2)
EA1FLQ 43.22.00N 005.36.35WIN73EI 19.929km 44°NE06:31:21ZMMDVM DVMega 430.9750/430.9750 CC1
LEMR 43.25.83N 005.49.60WIN73CK 21.910km 349°N06:30:04ZAerodromo de la Morgal (123.500MHz): LEAS 040530Z 23001KT CAVOK 15/14 Q1020 NOSIG=
EA1IPU 43.26.21N 005.46.62WIN73CK 22.243km 360°N06:30:52ZMMDVM MMDVM HS Hat 439.8000/439.8000 CC1(3EA1IPU-1)
LEGM 43.26.15N 005.49.84WIN73CK 22.569km 349°N06:30:03ZHelipuerto de La Morgal (123.500MHz): LEAS 040530Z 23001KT CAVOK 15/14 Q1020 NOSIG=
ED1ZAS 43.27.52N 005.40.17WIN73DL 26.124km 19°NNE06:30:06ZRD985 438.2250/430.6250 CC1
ED1ZAE 43.27.99N 005.40.54WIN73DL 26.776km 18°NNE06:36:15Z2m Voice 145.5875 -0.600 Mhz(3ED1ZAE-C)
WIDE3-3 ESAS3-3 IN73DL WWW.EA1URG.ORG(2ED1ZAE-3)
EA4ACU 43.29.56N 005.38.92WIN73EL 30.249km 20°NNE06:31:29ZMMDVM MMDVM HS Hat 432.7000/432.7000 CC1(3EA4ACU-1)
ED1ZAY 43.29.47N 005.56.54WIN73AL 31.323km 335°NNW06:30:08ZRD625 438.3000/430.7000 CC1
EB1GEM 43.30.00N 005.36.07WIN73EM 32.497km 26°NNE06:31:24ZWX3in1Plus2.0 U=13.3V,T=??.?C/??.?F(3EB1GEM-3)
EA1FFA 43.31.53N 005.40.64WIN73DM 33.075km 14°NNE06:31:15ZMMDVM MMDVM HS Hat 438.8000/438.8000 CC1(3EA1FFA-1)
EA1DZR 43.31.48N 005.40.00WIN73EM 33.186km 15°NNE06:31:47Z440 MMDVM Voice 433.10000MHz +0.0000MHz, APRS for DMRGateway(3EA1DZR-D)
MMDVM DVMega 431.1000/431.1000 CC1(2EA1DZR-1)
MMDVM MMDVM HS Hat 432.2000/432.2000 CC2(2EA1DZR-2)
MMDVM DV ADER 434.3500/434.3500 CC1(2EA1DZR-4)
EA1HJA 43.28.10N 005.30.45WIN73FL 33.658km 40°NE06:23:53Z IN73FL WX3IN1+ 2.0 - V=13.5V,TX TEMP=45.9C
IN73FL WX3IN1+ 2.0 - V=13.2V,TX TEMP=31.7C(2EA1HJA-2)
EA1IEJ 43.31.83N 005.40.22WIN73DM 33.732km 15°NNE06:31:46ZMMDVM MMDVM HS Hat 438.8500/438.8500 CC6(3EA1IEJ-1)
MMDVM DMO 222.3400/222.3400 CC1(2EA1IEJ-11)
EB1TK 43.32.22N 005.42.32WIN73DM 33.864km 10°N06:40:15ZWind 203°/002kn, Böen bis 005kn, Temp 15.56c, Regen 0.0mm, letzte 24h 0.0mm, seit 0h 0.0mm, Baro 1023.6h, Hum: 96%(3EB1TK-13)
EA1FPN 43.32.39N 005.42.17WIN73DM 34.190km 10°N06:30:55ZMMDVM MMDVM HS Hat 439.8750/439.8750 CC1
LEEL 43.32.98N 005.41.71WIN73DN 35.374km 11°N06:30:03ZHelipuerto de El Musel: LEAS 040530Z 23001KT CAVOK 15/14 Q1020 NOSIG=
EA1AHA 43.32.74N 005.54.36WIN73BN 35.900km 343°NNW06:30:18ZWind 000°/000kn, Böen bis 000kn, Temp 14.44c, Regen 0.0mm, letzte 24h 0.0mm, seit 0h 0.0mm, Baro 1022.2h, Hum: 94%(3EA1AHA-13)
MMDVM MMDVM HS Hat 432.0000/432.0000 CC1(2EA1AHA)
EA1FHR 43.28.72N 005.26.41WIN73GL 38.189km 45°NE06:30:34ZMMDVM MMDVM HS Hat 439.1500/439.1500 CC1
EA1HWD 43.28.96N 005.26.30WIN73GL 38.616km 45°NE06:31:17ZMMDVM MMDVM HS Hat 434.2500/434.2500 CC1
EA1JAY 43.29.33N 005.26.78WIN73GL 38.668km 43°NE06:30:05Z434.525MHz Nodo TETRA DMO(3EA1JAY-4)
EA1JAY(2EA1JAY-2)
EA1JW 43.31.35N 005.28.83WIN73GM 39.724km 37°NE06:31:28ZMMDVM MMDVM HS Hat 436.5000/436.5000 CC1(3EA1JW-3)
EA4DB 42.52.45N 005.25.06WIN72GU 49.730km 144°SE06:31:08ZMMDVM DMO 144.8625/144.8625 CC1(3EA4DB-9)
LETN 43.20.05N 006.22.69WIN63TI 49.934km 283°WNW06:30:03ZAerodromo de La Curiscada (Tineo): LEAS 040530Z 23001KT CAVOK 15/14 Q1020 NOSIG=

aprs.pl 5.0.011w DL3EL © 2006-2021 [5818260]